CheckWX is a tool to help pilots better visualize weather data.  It is not intended as a substitute for an official pre-flight weather briefing.

21:03:10 UTC

KCLE TAF
Cleveland-Hopkins International Airport
Cleveland, Ohio, USA
KCLE 242018Z 2420/2524 12013G25KT 6SM -RA OVC035 TEMPO 2420/2422 2SM -SHRA BR OVC008 FM242200 14012KT 5SM BR VCSH OVC008 FM251100 19005KT 4SM BR VCSH OVC005 FM251700 23008KT P6SM VCSH OVC010

Jan-24@
20:00 UTC

Jan-24 @ 20:00 UTC

Jan-24@
22:00 UTC

Jan-24 @ 22:00 UTC

KCLE 242018Z 2420/2524 12013G25KT 6SM -RA OVC035
Wind
  • 120° at 13 KTS
  • {Gusting to 25 KTS
Conditions
Light Rain
Cloud Levels
  • Overcast at 3,500' AGL

Jan-24@
20:00 UTC

Jan-24 @ 20:00 UTC

Jan-24@
22:00 UTC

Jan-24 @ 22:00 UTC

TEMPO 2420/2422 2SM -SHRA BR OVC008

Temporary

Temporary Changes expected for less than half the time period

Conditions
Light Rain, Mist
Cloud Levels
  • Overcast at 800' AGL

Jan-24@
22:00 UTC

Jan-24 @ 22:00 UTC

Jan-25@
11:00 UTC

Jan-25 @ 11:00 UTC

FM242200 14012KT 5SM BR VCSH OVC008

From

From Standard forecast or significant change

Wind
  • 140° at 12 KTS
Conditions
Mist
Cloud Levels
  • Overcast at 800' AGL

Jan-25@
11:00 UTC

Jan-25 @ 11:00 UTC

Jan-25@
17:00 UTC

Jan-25 @ 17:00 UTC

FM251100 19005KT 4SM BR VCSH OVC005

From

From Standard forecast or significant change

Wind
  • 190° at 5 KTS
Conditions
Mist
Cloud Levels
  • Overcast at 500' AGL

Jan-25@
17:00 UTC

Jan-25 @ 17:00 UTC

Jan-26@
00:00 UTC

Jan-26 @ 00:00 UTC

FM251700 23008KT P6SM VCSH OVC010

From

From Standard forecast or significant change

Wind
  • 230° at 8 KTS
Cloud Levels
  • Overcast at 1,000' AGL